sensor_id;sensor_type;location;lat;lon;timestamp;temperature;humidity
68813;DHT22;55808;48.112;11.552;2023-05-10T10:30:27;15.00;99.90
68813;DHT22;55808;48.112;11.552;2023-05-10T10:35:23;15.30;99.90
68813;DHT22;55808;48.112;11.552;2023-05-10T10:37:50;15.50;99.90
68813;DHT22;55808;48.112;11.552;2023-05-10T10:40:31;15.70;99.90
68813;DHT22;55808;48.112;11.552;2023-05-10T10:42:57;16.40;99.90
68813;DHT22;55808;48.112;11.552;2023-05-10T10:45:24;17.00;99.90
68813;DHT22;55808;48.112;11.552;2023-05-10T10:47:56;16.40;99.90
68813;DHT22;55808;48.112;11.552;2023-05-10T10:50:45;15.70;99.90
68813;DHT22;55808;48.112;11.552;2023-05-10T10:53:11;15.10;99.90
68813;DHT22;55808;48.112;11.552;2023-05-10T10:55:44;14.80;99.90
68813;DHT22;55808;48.112;11.552;2023-05-10T10:58:10;14.80;99.90
68813;DHT22;55808;48.112;11.552;2023-05-10T11:00:53;14.60;99.90
68813;DHT22;55808;48.112;11.552;2023-05-10T11:03:33;14.30;99.90
68813;DHT22;55808;48.112;11.552;2023-05-10T11:05:59;14.20;99.90
68813;DHT22;55808;48.112;11.552;2023-05-10T11:08:35;13.70;99.90
68813;DHT22;55808;48.112;11.552;2023-05-10T11:11:06;12.80;99.90
68813;DHT22;55808;48.112;11.552;2023-05-10T11:13:33;12.50;99.90
68813;DHT22;55808;48.112;11.552;2023-05-10T11:15:59;12.40;99.90
68813;DHT22;55808;48.112;11.552;2023-05-10T11:18:36;12.30;99.90
68813;DHT22;55808;48.112;11.552;2023-05-10T11:21:01;12.30;99.90
68813;DHT22;55808;48.112;11.552;2023-05-10T11:26:09;12.40;99.90
68813;DHT22;55808;48.112;11.552;2023-05-10T11:28:40;12.40;99.90
68813;DHT22;55808;48.112;11.552;2023-05-10T11:31:06;12.30;99.90
68813;DHT22;55808;48.112;11.552;2023-05-10T11:36:14;12.10;99.90
68813;DHT22;55808;48.112;11.552;2023-05-10T11:38:41;11.80;99.90
68813;DHT22;55808;48.112;11.552;2023-05-10T11:41:09;11.60;99.90
68813;DHT22;55808;48.112;11.552;2023-05-10T11:43:37;11.50;99.90
68813;DHT22;55808;48.112;11.552;2023-05-10T11:46:07;11.40;99.90
68813;DHT22;55808;48.112;11.552;2023-05-10T11:48:33;11.30;99.90
68813;DHT22;55808;48.112;11.552;2023-05-10T11:50:58;11.30;99.90
68813;DHT22;55808;48.112;11.552;2023-05-10T11:53:27;11.30;99.90
68813;DHT22;55808;48.112;11.552;2023-05-10T11:55:53;11.30;99.90
68813;DHT22;55808;48.112;11.552;2023-05-10T11:58:18;11.20;99.90
68813;DHT22;55808;48.112;11.552;2023-05-10T12:00:44;11.00;99.90
68813;DHT22;55808;48.112;11.552;2023-05-10T12:03:10;11.00;99.90
68813;DHT22;55808;48.112;11.552;2023-05-10T12:05:36;11.00;99.90
68813;DHT22;55808;48.112;11.552;2023-05-10T12:08:14;10.90;99.90
68813;DHT22;55808;48.112;11.552;2023-05-10T12:10:40;10.80;99.90
68813;DHT22;55808;48.112;11.552;2023-05-10T12:13:10;10.70;99.90
68813;DHT22;55808;48.112;11.552;2023-05-10T12:15:35;10.90;99.90
68813;DHT22;55808;48.112;11.552;2023-05-10T12:18:01;10.90;99.90
68813;DHT22;55808;48.112;11.552;2023-05-10T12:20:28;11.00;99.90
68813;DHT22;55808;48.112;11.552;2023-05-10T12:22:54;11.10;99.90
68813;DHT22;55808;48.112;11.552;2023-05-10T12:25:20;11.10;99.90
68813;DHT22;55808;48.112;11.552;2023-05-10T12:30:18;11.20;99.90
68813;DHT22;55808;48.112;11.552;2023-05-10T12:32:44;11.30;99.90
68813;DHT22;55808;48.112;11.552;2023-05-10T12:35:10;11.20;99.90
68813;DHT22;55808;48.112;11.552;2023-05-10T12:37:35;11.30;99.90
68813;DHT22;55808;48.112;11.552;2023-05-10T12:40:07;11.30;99.90
68813;DHT22;55808;48.112;11.552;2023-05-10T12:42:33;11.10;99.90
68813;DHT22;55808;48.112;11.552;2023-05-10T12:44:59;11.00;99.90
68813;DHT22;55808;48.112;11.552;2023-05-10T12:47:24;11.20;99.90
68813;DHT22;55808;48.112;11.552;2023-05-10T12:49:50;11.40;99.90
68813;DHT22;55808;48.112;11.552;2023-05-10T12:52:16;11.40;99.90
68813;DHT22;55808;48.112;11.552;2023-05-10T12:54:42;11.10;99.90
68813;DHT22;55808;48.112;11.552;2023-05-10T12:57:07;11.20;99.90
68813;DHT22;55808;48.112;11.552;2023-05-10T12:59:33;11.40;99.90
68813;DHT22;55808;48.112;11.552;2023-05-10T13:01:58;11.20;99.90
68813;DHT22;55808;48.112;11.552;2023-05-10T13:04:24;11.40;99.90
68813;DHT22;55808;48.112;11.552;2023-05-10T13:06:49;11.40;99.90
68813;DHT22;55808;48.112;11.552;2023-05-10T13:09:15;11.40;99.90
68813;DHT22;55808;48.112;11.552;2023-05-10T13:11:40;11.40;99.90
68813;DHT22;55808;48.112;11.552;2023-05-10T13:14:06;11.60;99.90
68813;DHT22;55808;48.112;11.552;2023-05-10T13:16:32;11.30;99.90
68813;DHT22;55808;48.112;11.552;2023-05-10T13:18:57;11.20;99.90
68813;DHT22;55808;48.112;11.552;2023-05-10T13:21:23;11.30;99.90
68813;DHT22;55808;48.112;11.552;2023-05-10T13:23:50;11.30;99.90
68813;DHT22;55808;48.112;11.552;2023-05-10T13:26:15;11.30;99.90
68813;DHT22;55808;48.112;11.552;2023-05-10T13:28:41;11.30;99.90
68813;DHT22;55808;48.112;11.552;2023-05-10T13:31:07;11.40;99.90
68813;DHT22;55808;48.112;11.552;2023-05-10T13:33:33;11.30;99.90
68813;DHT22;55808;48.112;11.552;2023-05-10T13:35:58;11.50;99.90
68813;DHT22;55808;48.112;11.552;2023-05-10T13:38:23;11.40;99.90
68813;DHT22;55808;48.112;11.552;2023-05-10T13:40:49;11.40;99.90
68813;DHT22;55808;48.112;11.552;2023-05-10T13:43:20;11.30;99.90
68813;DHT22;55808;48.112;11.552;2023-05-10T13:45:46;11.50;99.90
68813;DHT22;55808;48.112;11.552;2023-05-10T13:48:11;11.40;99.90
68813;DHT22;55808;48.112;11.552;2023-05-10T13:50:37;11.40;99.90
68813;DHT22;55808;48.112;11.552;2023-05-10T13:53:03;11.50;99.90
68813;DHT22;55808;48.112;11.552;2023-05-10T13:55:29;11.20;99.90
68813;DHT22;55808;48.112;11.552;2023-05-10T13:57:54;11.20;99.90
68813;DHT22;55808;48.112;11.552;2023-05-10T14:00:20;11.40;99.90
68813;DHT22;55808;48.112;11.552;2023-05-10T14:02:45;11.30;99.90
68813;DHT22;55808;48.112;11.552;2023-05-10T14:05:11;11.30;99.90
68813;DHT22;55808;48.112;11.552;2023-05-10T14:07:36;11.30;99.90
68813;DHT22;55808;48.112;11.552;2023-05-10T14:10:02;11.20;99.90
68813;DHT22;55808;48.112;11.552;2023-05-10T14:12:28;11.30;99.90
68813;DHT22;55808;48.112;11.552;2023-05-10T14:14:53;11.30;99.90
68813;DHT22;55808;48.112;11.552;2023-05-10T14:17:19;11.50;99.90
68813;DHT22;55808;48.112;11.552;2023-05-10T14:19:44;11.50;99.90
68813;DHT22;55808;48.112;11.552;2023-05-10T14:22:10;11.40;99.90
68813;DHT22;55808;48.112;11.552;2023-05-10T14:24:35;11.50;99.90
68813;DHT22;55808;48.112;11.552;2023-05-10T14:27:01;11.40;99.90
68813;DHT22;55808;48.112;11.552;2023-05-10T14:29:27;11.40;99.90
68813;DHT22;55808;48.112;11.552;2023-05-10T14:31:52;11.30;99.90
68813;DHT22;55808;48.112;11.552;2023-05-10T14:34:18;11.30;99.90
68813;DHT22;55808;48.112;11.552;2023-05-10T14:36:43;11.10;99.90
68813;DHT22;55808;48.112;11.552;2023-05-10T14:39:09;11.00;99.90
68813;DHT22;55808;48.112;11.552;2023-05-10T14:41:35;11.00;99.90
68813;DHT22;55808;48.112;11.552;2023-05-10T14:44:00;11.10;99.90
68813;DHT22;55808;48.112;11.552;2023-05-10T14:46:28;11.10;99.90
68813;DHT22;55808;48.112;11.552;2023-05-10T14:48:55;11.00;99.90
68813;DHT22;55808;48.112;11.552;2023-05-10T14:51:20;11.10;99.90
68813;DHT22;55808;48.112;11.552;2023-05-10T14:53:47;11.00;99.90
68813;DHT22;55808;48.112;11.552;2023-05-10T14:56:13;11.00;99.90
68813;DHT22;55808;48.112;11.552;2023-05-10T14:58:38;10.90;99.90
68813;DHT22;55808;48.112;11.552;2023-05-10T15:01:04;10.90;99.90
68813;DHT22;55808;48.112;11.552;2023-05-10T15:03:32;10.80;99.90
68813;DHT22;55808;48.112;11.552;2023-05-10T15:05:57;10.90;99.90
68813;DHT22;55808;48.112;11.552;2023-05-10T15:08:23;10.90;99.90
68813;DHT22;55808;48.112;11.552;2023-05-10T15:10:50;10.80;99.90
68813;DHT22;55808;48.112;11.552;2023-05-10T15:13:15;10.90;99.90
68813;DHT22;55808;48.112;11.552;2023-05-10T15:15:41;10.80;99.90
68813;DHT22;55808;48.112;11.552;2023-05-10T15:18:06;10.70;99.90
68813;DHT22;55808;48.112;11.552;2023-05-10T15:20:32;10.80;99.90
68813;DHT22;55808;48.112;11.552;2023-05-10T15:22:57;10.90;99.90
68813;DHT22;55808;48.112;11.552;2023-05-10T15:25:23;10.80;99.90
68813;DHT22;55808;48.112;11.552;2023-05-10T15:27:49;10.70;99.90
68813;DHT22;55808;48.112;11.552;2023-05-10T15:30:14;10.70;99.90
68813;DHT22;55808;48.112;11.552;2023-05-10T15:32:40;10.50;99.90
68813;DHT22;55808;48.112;11.552;2023-05-10T15:35:07;10.60;99.90
68813;DHT22;55808;48.112;11.552;2023-05-10T15:37:33;10.70;99.90
68813;DHT22;55808;48.112;11.552;2023-05-10T15:39:58;10.70;99.90
68813;DHT22;55808;48.112;11.552;2023-05-10T15:42:31;10.50;99.90
68813;DHT22;55808;48.112;11.552;2023-05-10T15:44:57;10.60;99.90
68813;DHT22;55808;48.112;11.552;2023-05-10T15:47:23;10.60;99.90
68813;DHT22;55808;48.112;11.552;2023-05-10T15:49:48;10.50;99.90
68813;DHT22;55808;48.112;11.552;2023-05-10T15:52:14;10.50;99.90
68813;DHT22;55808;48.112;11.552;2023-05-10T15:54:40;10.50;99.90
68813;DHT22;55808;48.112;11.552;2023-05-10T15:57:06;10.40;99.90
68813;DHT22;55808;48.112;11.552;2023-05-10T15:59:35;10.40;99.90
68813;DHT22;55808;48.112;11.552;2023-05-10T16:02:02;10.40;99.90
68813;DHT22;55808;48.112;11.552;2023-05-10T16:04:28;10.50;99.90
68813;DHT22;55808;48.112;11.552;2023-05-10T16:06:54;10.50;99.90
68813;DHT22;55808;48.112;11.552;2023-05-10T16:09:20;10.50;99.90
68813;DHT22;55808;48.112;11.552;2023-05-10T16:11:46;10.30;99.90
68813;DHT22;55808;48.112;11.552;2023-05-10T16:14:11;10.40;99.90
68813;DHT22;55808;48.112;11.552;2023-05-10T16:16:37;10.40;99.90
68813;DHT22;55808;48.112;11.552;2023-05-10T16:19:02;10.50;99.90
68813;DHT22;55808;48.112;11.552;2023-05-10T16:21:29;10.50;99.90
68813;DHT22;55808;48.112;11.552;2023-05-10T16:23:56;10.40;99.90
68813;DHT22;55808;48.112;11.552;2023-05-10T16:26:22;10.40;99.90
68813;DHT22;55808;48.112;11.552;2023-05-10T16:28:47;10.50;99.90
68813;DHT22;55808;48.112;11.552;2023-05-10T16:31:13;10.30;99.90
68813;DHT22;55808;48.112;11.552;2023-05-10T16:33:39;9.40;99.90
68813;DHT22;55808;48.112;11.552;2023-05-10T16:36:04;10.30;99.90
68813;DHT22;55808;48.112;11.552;2023-05-10T16:38:30;10.40;99.90
68813;DHT22;55808;48.112;11.552;2023-05-10T16:40:56;10.30;99.90
68813;DHT22;55808;48.112;11.552;2023-05-10T16:43:22;10.30;99.90
68813;DHT22;55808;48.112;11.552;2023-05-10T16:45:48;10.30;99.90
68813;DHT22;55808;48.112;11.552;2023-05-10T16:48:14;10.30;99.90
68813;DHT22;55808;48.112;11.552;2023-05-10T16:50:42;10.30;99.90
68813;DHT22;55808;48.112;11.552;2023-05-10T16:53:07;10.20;99.90
68813;DHT22;55808;48.112;11.552;2023-05-10T16:55:33;10.20;99.90
68813;DHT22;55808;48.112;11.552;2023-05-10T16:57:58;10.30;99.90
68813;DHT22;55808;48.112;11.552;2023-05-10T17:00:28;10.30;99.90
68813;DHT22;55808;48.112;11.552;2023-05-10T17:02:54;10.20;99.90
68813;DHT22;55808;48.112;11.552;2023-05-10T17:05:20;10.10;99.90
68813;DHT22;55808;48.112;11.552;2023-05-10T17:07:45;10.10;99.90
68813;DHT22;55808;48.112;11.552;2023-05-10T17:10:11;10.10;99.90
68813;DHT22;55808;48.112;11.552;2023-05-10T17:12:36;10.10;99.90
68813;DHT22;55808;48.112;11.552;2023-05-10T17:15:02;10.20;99.90
68813;DHT22;55808;48.112;11.552;2023-05-10T17:17:27;10.10;99.90
68813;DHT22;55808;48.112;11.552;2023-05-10T17:19:53;10.20;99.90
68813;DHT22;55808;48.112;11.552;2023-05-10T17:22:18;10.00;99.90
68813;DHT22;55808;48.112;11.552;2023-05-10T17:24:44;9.90;99.90
68813;DHT22;55808;48.112;11.552;2023-05-10T17:27:13;9.90;99.90
68813;DHT22;55808;48.112;11.552;2023-05-10T17:32:04;9.80;99.90
68813;DHT22;55808;48.112;11.552;2023-05-10T17:34:30;9.60;99.90
68813;DHT22;55808;48.112;11.552;2023-05-10T17:39:22;9.60;99.90
68813;DHT22;55808;48.112;11.552;2023-05-10T17:41:47;9.60;99.90
68813;DHT22;55808;48.112;11.552;2023-05-10T17:44:13;9.50;99.90
68813;DHT22;55808;48.112;11.552;2023-05-10T17:49:04;9.60;99.90
68813;DHT22;55808;48.112;11.552;2023-05-10T17:51:30;9.50;99.90
68813;DHT22;55808;48.112;11.552;2023-05-10T18:03:42;9.50;99.90
68813;DHT22;55808;48.112;11.552;2023-05-10T18:18:17;9.50;99.90
68813;DHT22;55808;48.112;11.552;2023-05-10T18:30:32;9.40;99.90
68813;DHT22;55808;48.112;11.552;2023-05-10T19:02:09;9.30;99.90
68813;DHT22;55808;48.112;11.552;2023-05-10T19:04:34;9.30;99.90
68813;DHT22;55808;48.112;11.552;2023-05-10T19:07:00;9.20;99.90
68813;DHT22;55808;48.112;11.552;2023-05-10T19:09:26;9.10;99.90
68813;DHT22;55808;48.112;11.552;2023-05-10T19:11:51;9.10;99.90
68813;DHT22;55808;48.112;11.552;2023-05-10T19:24:01;9.10;99.90
68813;DHT22;55808;48.112;11.552;2023-05-10T19:28:52;9.20;99.90
68813;DHT22;55808;48.112;11.552;2023-05-10T19:38:36;9.20;99.90
68813;DHT22;55808;48.112;11.552;2023-05-10T19:41:02;9.20;99.90
68813;DHT22;55808;48.112;11.552;2023-05-10T20:17:32;9.20;99.90
68813;DHT22;55808;48.112;11.552;2023-05-10T20:19:57;9.20;99.90
68813;DHT22;55808;48.112;11.552;2023-05-10T20:22:23;9.20;99.90
68813;DHT22;55808;48.112;11.552;2023-05-10T20:24:49;9.20;99.90
68813;DHT22;55808;48.112;11.552;2023-05-10T20:27:14;9.50;99.90
68813;DHT22;55808;48.112;11.552;2023-05-10T20:29:40;9.20;99.90
68813;DHT22;55808;48.112;11.552;2023-05-10T20:32:05;9.20;99.90
68813;DHT22;55808;48.112;11.552;2023-05-10T20:39:23;9.10;99.90
68813;DHT22;55808;48.112;11.552;2023-05-10T20:41:48;8.90;99.90
68813;DHT22;55808;48.112;11.552;2023-05-10T20:54:03;9.10;99.90
68813;DHT22;55808;48.112;11.552;2023-05-10T20:56:29;9.00;99.90
68813;DHT22;55808;48.112;11.552;2023-05-10T21:01:21;9.10;99.90
68813;DHT22;55808;48.112;11.552;2023-05-10T21:06:12;8.90;99.90
68813;DHT22;55808;48.112;11.552;2023-05-10T21:08:37;8.90;99.90
68813;DHT22;55808;48.112;11.552;2023-05-10T21:11:03;8.90;99.90
68813;DHT22;55808;48.112;11.552;2023-05-10T21:18:24;8.90;99.90
68813;DHT22;55808;48.112;11.552;2023-05-10T21:20:50;8.90;99.90
68813;DHT22;55808;48.112;11.552;2023-05-10T21:23:16;8.80;99.90
68813;DHT22;55808;48.112;11.552;2023-05-10T21:25:41;8.90;99.90
68813;DHT22;55808;48.112;11.552;2023-05-10T21:28:07;8.80;99.90
68813;DHT22;55808;48.112;11.552;2023-05-10T21:30:32;8.70;99.90
68813;DHT22;55808;48.112;11.552;2023-05-10T21:32:58;8.60;99.90
68813;DHT22;55808;48.112;11.552;2023-05-10T21:35:24;8.60;99.90
68813;DHT22;55808;48.112;11.552;2023-05-10T21:37:50;8.60;99.90
68813;DHT22;55808;48.112;11.552;2023-05-10T21:40:16;8.70;99.90
68813;DHT22;55808;48.112;11.552;2023-05-10T21:42:41;8.60;99.90
68813;DHT22;55808;48.112;11.552;2023-05-10T21:45:07;8.60;99.90
68813;DHT22;55808;48.112;11.552;2023-05-10T21:49:58;8.60;99.90
68813;DHT22;55808;48.112;11.552;2023-05-10T21:52:24;8.70;99.90
68813;DHT22;55808;48.112;11.552;2023-05-10T21:54:49;8.60;99.90
68813;DHT22;55808;48.112;11.552;2023-05-10T21:57:15;8.60;99.90
68813;DHT22;55808;48.112;11.552;2023-05-10T21:59:40;8.50;99.90
68813;DHT22;55808;48.112;11.552;2023-05-10T22:02:06;8.70;99.90
68813;DHT22;55808;48.112;11.552;2023-05-10T22:04:32;8.60;99.90
68813;DHT22;55808;48.112;11.552;2023-05-10T22:06:57;8.50;99.90
68813;DHT22;55808;48.112;11.552;2023-05-10T22:09:23;8.50;99.90
68813;DHT22;55808;48.112;11.552;2023-05-10T22:11:49;8.50;99.90
68813;DHT22;55808;48.112;11.552;2023-05-10T22:14:15;8.40;99.90
68813;DHT22;55808;48.112;11.552;2023-05-10T22:16:40;8.40;99.90
68813;DHT22;55808;48.112;11.552;2023-05-10T22:19:06;8.40;99.90
68813;DHT22;55808;48.112;11.552;2023-05-10T22:21:31;8.50;99.90
68813;DHT22;55808;48.112;11.552;2023-05-10T22:23:57;8.40;99.90
68813;DHT22;55808;48.112;11.552;2023-05-10T22:26:23;8.30;99.90
68813;DHT22;55808;48.112;11.552;2023-05-10T22:28:49;8.40;99.90
68813;DHT22;55808;48.112;11.552;2023-05-10T22:31:14;8.30;99.90
68813;DHT22;55808;48.112;11.552;2023-05-10T22:33:40;8.40;99.90
68813;DHT22;55808;48.112;11.552;2023-05-10T22:36:05;8.30;99.90
68813;DHT22;55808;48.112;11.552;2023-05-10T22:38:31;8.30;99.90
68813;DHT22;55808;48.112;11.552;2023-05-10T22:40:57;8.20;99.90
68813;DHT22;55808;48.112;11.552;2023-05-10T22:43:22;8.30;99.90
68813;DHT22;55808;48.112;11.552;2023-05-10T22:45:48;8.20;99.90
68813;DHT22;55808;48.112;11.552;2023-05-10T22:48:14;8.30;99.90
68813;DHT22;55808;48.112;11.552;2023-05-10T22:50:39;8.30;99.90
68813;DHT22;55808;48.112;11.552;2023-05-10T22:53:05;8.20;99.90
68813;DHT22;55808;48.112;11.552;2023-05-10T22:55:31;8.10;99.90
68813;DHT22;55808;48.112;11.552;2023-05-10T22:57:57;8.10;99.90
68813;DHT22;55808;48.112;11.552;2023-05-10T23:00:22;8.20;99.90
68813;DHT22;55808;48.112;11.552;2023-05-10T23:02:48;8.10;99.90
68813;DHT22;55808;48.112;11.552;2023-05-10T23:05:13;8.20;99.90
68813;DHT22;55808;48.112;11.552;2023-05-10T23:07:39;8.10;99.90
68813;DHT22;55808;48.112;11.552;2023-05-10T23:10:04;8.10;99.90
68813;DHT22;55808;48.112;11.552;2023-05-10T23:12:30;8.20;99.90
68813;DHT22;55808;48.112;11.552;2023-05-10T23:14:56;8.10;99.90
68813;DHT22;55808;48.112;11.552;2023-05-10T23:17:21;8.10;99.90
68813;DHT22;55808;48.112;11.552;2023-05-10T23:19:47;8.10;99.90
68813;DHT22;55808;48.112;11.552;2023-05-10T23:22:12;8.10;99.90
68813;DHT22;55808;48.112;11.552;2023-05-10T23:24:38;8.10;99.90
68813;DHT22;55808;48.112;11.552;2023-05-10T23:27:03;8.00;99.90
68813;DHT22;55808;48.112;11.552;2023-05-10T23:29:29;8.10;99.90
68813;DHT22;55808;48.112;11.552;2023-05-10T23:31:56;8.00;99.90
68813;DHT22;55808;48.112;11.552;2023-05-10T23:34:21;8.00;99.90
68813;DHT22;55808;48.112;11.552;2023-05-10T23:36:47;8.10;99.90
68813;DHT22;55808;48.112;11.552;2023-05-10T23:39:12;8.10;99.90
68813;DHT22;55808;48.112;11.552;2023-05-10T23:41:38;8.10;99.90
68813;DHT22;55808;48.112;11.552;2023-05-10T23:44:03;8.00;99.90
68813;DHT22;55808;48.112;11.552;2023-05-10T23:46:29;8.10;99.90
68813;DHT22;55808;48.112;11.552;2023-05-10T23:48:55;8.10;99.90
68813;DHT22;55808;48.112;11.552;2023-05-10T23:51:20;8.10;99.90
68813;DHT22;55808;48.112;11.552;2023-05-10T23:53:46;8.00;99.90
68813;DHT22;55808;48.112;11.552;2023-05-10T23:56:11;8.00;99.90
68813;DHT22;55808;48.112;11.552;2023-05-10T23:58:37;8.10;99.90
